Seaexpressii — HO4619 — position and weather

sailwx.info

Track history (hours):
 
Tides and Currents Weather Stations Pressure Air Temp Water Temp Dewpoint Dewpoint Depression Visibility Wind Speed Wind Dir Waves Ship Positions

Seaexpressii

Last reported at 2014-Aug-01 18:33 UTC. Time now 2014-Aug-02 08:46 UTC.
Position N 26°05' W 079°44'.

Length 37 m; draft 2 m.

Type: Ship. MMSI: 356449000.

Date/timePositionNaut miles runAvg speedWind from/ knotsBaromVisibWave heightAir tempDewpointWater temp
2014-Aug-01 18:33N 26°05' W 079°44'10 9.9
2014-Aug-01 17:33N 26°05' W 079°55'10 9.6
2014-Aug-01 16:33N 26°06' W 080°05'3 2.9
2014-Aug-01 15:33N 26°04' W 080°08'0 0.0
2014-Aug-01 14:33N 26°04' W 080°08'0 0.0
2014-Aug-01 13:33N 26°04' W 080°08'0 0.0
2014-Aug-01 12:33N 26°04' W 080°08'0 0.1
2014-Aug-01 11:33N 26°04' W 080°08'6 6.2
2014-Aug-01 10:33N 26°03' W 080°01'1010.0
2014-Aug-01 09:34N 25°59' W 079°51'1111.2
2014-Aug-01 08:33N 25°53' W 079°40'4 0.2
2014-Jul-31 08:32N 25°55' W 079°44'8 7.6
2014-Jul-31 07:33N 25°59' W 079°51'8 7.6
2014-Jul-31 06:33N 26°02' W 079°58'8 7.8
2014-Jul-31 05:33N 26°06' W 080°06'2 2.5
2014-Jul-31 04:34N 26°04' W 080°08'0 0.0
2014-Jul-31 03:34N 26°04' W 080°08'0 0.0
2014-Jul-31 02:34N 26°04' W 080°08'0 0.0
2014-Jul-31 01:33N 26°04' W 080°08'0 0.0
2014-Jul-31 00:33N 26°04' W 080°08'0 0.0
2014-Jul-30 23:33N 26°04' W 080°08'0 0.0
2014-Jul-30 22:33N 26°04' W 080°08'0 0.0
2014-Jul-30 21:33N 26°04' W 080°08'0 0.0
2014-Jul-30 20:33N 26°04' W 080°08'0 0.0
2014-Jul-30 19:33N 26°04' W 080°08'0 0.0
2014-Jul-30 18:33N 26°04' W 080°08'0 0.0
2014-Jul-30 17:33N 26°04' W 080°08'0 0.0
2014-Jul-30 16:33N 26°04' W 080°08'0 0.0
2014-Jul-30 15:34N 26°04' W 080°08'0 0.0
2014-Jul-30 14:33N 26°04' W 080°08'0 0.0
2014-Jul-30 13:33N 26°04' W 080°08'0 0.0
2014-Jul-30 12:34N 26°04' W 080°08'1 1.2
2014-Jul-30 11:33N 26°05' W 080°07'8 7.8
2014-Jul-30 10:33N 26°04' W 079°58'8 8.4
2014-Jul-30 09:33N 26°01' W 079°49'9 8.5
2014-Jul-30 08:33N 25°59' W 079°40'10 9.2
2014-Jul-30 07:30N 25°56' W 079°30'65 1.3
2014-Jul-28 05:23N 26°55' W 079°01'4711.1
2014-Jul-28 01:08N 26°25' W 079°41'813.2
2014-Jul-28 00:33N 26°20' W 079°48'1313.2
2014-Jul-27 23:33N 26°11' W 079°59'1010.0
2014-Jul-27 22:33N 26°04' W 080°07'1 1.0
2014-Jul-27 21:33N 26°04' W 080°08'0 0.0
2014-Jul-27 20:33N 26°04' W 080°08'0 0.0
2014-Jul-27 19:33N 26°04' W 080°08'3 2.9
2014-Jul-27 18:33N 26°06' W 080°05'1010.4
2014-Jul-27 17:33N 26°03' W 079°54'1010.2
2014-Jul-27 16:33N 25°60' W 079°43'1010.5
2014-Jul-27 15:33N 25°57' W 079°32'11 0.3
2014-Jul-25 22:32N 26°05' W 079°39'9 9.4
2014-Jul-25 21:33N 26°05' W 079°50'9 9.3
2014-Jul-25 20:33N 26°05' W 079°60'7 7.2
2014-Jul-25 19:33N 26°04' W 080°08'0 0.1
2014-Jul-25 18:33N 26°04' W 080°08'0 0.0
2014-Jul-25 17:33N 26°04' W 080°08'0 0.0
2014-Jul-25 16:33N 26°04' W 080°08'0 0.0
2014-Jul-25 15:33N 26°04' W 080°08'0 0.0
2014-Jul-25 14:33N 26°04' W 080°08'0 0.0
2014-Jul-25 13:33N 26°04' W 080°08'0 0.0
2014-Jul-25 12:33N 26°04' W 080°08'1 0.9
2014-Jul-25 11:34N 26°04' W 080°07'6 6.5
2014-Jul-25 10:33N 26°03' W 079°60'1110.6
2014-Jul-25 09:33N 25°58' W 079°49'1111.2
2014-Jul-25 08:33N 25°53' W 079°38'8 0.3
2014-Jul-24 06:25N 25°54' W 079°48'6 6.9
2014-Jul-24 05:33N 25°57' W 079°53'7 7.4
2014-Jul-24 04:33N 26°02' W 079°60'7 7.0
2014-Jul-24 03:33N 26°05' W 080°07'1 1.3
2014-Jul-24 02:33N 26°04' W 080°08'0 0.0
2014-Jul-24 01:33N 26°04' W 080°08'0 0.0
2014-Jul-24 00:33N 26°04' W 080°08'0 0.0
2014-Jul-23 23:33N 26°04' W 080°08'0 0.0
2014-Jul-23 22:33N 26°04' W 080°08'0 0.0
2014-Jul-23 21:33N 26°04' W 080°08'0 0.0
2014-Jul-23 20:33N 26°04' W 080°08'0 0.0
2014-Jul-23 19:33N 26°04' W 080°08'0 0.0
2014-Jul-23 18:33N 26°04' W 080°08'0 0.0
2014-Jul-23 17:33N 26°04' W 080°08'0 0.0
2014-Jul-23 16:33N 26°04' W 080°08'0 0.0
2014-Jul-23 15:33N 26°04' W 080°08'2 2.3
2014-Jul-23 14:33N 26°06' W 080°07'1010.4
2014-Jul-23 13:33N 26°03' W 079°55'1110.9
2014-Jul-23 12:33N 25°60' W 079°44'1110.9
2014-Jul-23 11:33N 25°57' W 079°32'  
Track history (hours):
 
Tides and Currents Weather Stations Pressure Air Temp Water Temp Dewpoint Dewpoint Depression Visibility Wind Speed Wind Dir Waves Ship Positions

Seaexpressii

Last reported at 2014-Aug-01 18:33 UTC. Time now 2014-Aug-02 08:46 UTC.
Position N 26°05' W 079°44'.

Length 37 m; draft 2 m.

Type: Ship. MMSI: 356449000.

Date/timePositionNaut miles runAvg speedWind from/ knotsBaromVisibWave heightAir tempDewpointWater temp
2014-Aug-01 18:33N 26°05' W 079°44'10 9.9
2014-Aug-01 17:33N 26°05' W 079°55'10 9.6
2014-Aug-01 16:33N 26°06' W 080°05'3 2.9
2014-Aug-01 15:33N 26°04' W 080°08'0 0.0
2014-Aug-01 14:33N 26°04' W 080°08'0 0.0
2014-Aug-01 13:33N 26°04' W 080°08'0 0.0
2014-Aug-01 12:33N 26°04' W 080°08'0 0.1
2014-Aug-01 11:33N 26°04' W 080°08'6 6.2
2014-Aug-01 10:33N 26°03' W 080°01'1010.0
2014-Aug-01 09:34N 25°59' W 079°51'1111.2
2014-Aug-01 08:33N 25°53' W 079°40'4 0.2
2014-Jul-31 08:32N 25°55' W 079°44'8 7.6
2014-Jul-31 07:33N 25°59' W 079°51'8 7.6
2014-Jul-31 06:33N 26°02' W 079°58'8 7.8
2014-Jul-31 05:33N 26°06' W 080°06'2 2.5
2014-Jul-31 04:34N 26°04' W 080°08'0 0.0
2014-Jul-31 03:34N 26°04' W 080°08'0 0.0
2014-Jul-31 02:34N 26°04' W 080°08'0 0.0
2014-Jul-31 01:33N 26°04' W 080°08'0 0.0
2014-Jul-31 00:33N 26°04' W 080°08'0 0.0
2014-Jul-30 23:33N 26°04' W 080°08'0 0.0
2014-Jul-30 22:33N 26°04' W 080°08'0 0.0
2014-Jul-30 21:33N 26°04' W 080°08'0 0.0
2014-Jul-30 20:33N 26°04' W 080°08'0 0.0
2014-Jul-30 19:33N 26°04' W 080°08'0 0.0
2014-Jul-30 18:33N 26°04' W 080°08'0 0.0
2014-Jul-30 17:33N 26°04' W 080°08'0 0.0
2014-Jul-30 16:33N 26°04' W 080°08'0 0.0
2014-Jul-30 15:34N 26°04' W 080°08'0 0.0
2014-Jul-30 14:33N 26°04' W 080°08'0 0.0
2014-Jul-30 13:33N 26°04' W 080°08'0 0.0
2014-Jul-30 12:34N 26°04' W 080°08'1 1.2
2014-Jul-30 11:33N 26°05' W 080°07'8 7.8
2014-Jul-30 10:33N 26°04' W 079°58'8 8.4
2014-Jul-30 09:33N 26°01' W 079°49'9 8.5
2014-Jul-30 08:33N 25°59' W 079°40'10 9.2
2014-Jul-30 07:30N 25°56' W 079°30'65 1.3
2014-Jul-28 05:23N 26°55' W 079°01'4711.1
2014-Jul-28 01:08N 26°25' W 079°41'813.2
2014-Jul-28 00:33N 26°20' W 079°48'1313.2
2014-Jul-27 23:33N 26°11' W 079°59'1010.0
2014-Jul-27 22:33N 26°04' W 080°07'1 1.0
2014-Jul-27 21:33N 26°04' W 080°08'0 0.0
2014-Jul-27 20:33N 26°04' W 080°08'0 0.0
2014-Jul-27 19:33N 26°04' W 080°08'3 2.9
2014-Jul-27 18:33N 26°06' W 080°05'1010.4
2014-Jul-27 17:33N 26°03' W 079°54'1010.2
2014-Jul-27 16:33N 25°60' W 079°43'1010.5
2014-Jul-27 15:33N 25°57' W 079°32'11 0.3
2014-Jul-25 22:32N 26°05' W 079°39'9 9.4
2014-Jul-25 21:33N 26°05' W 079°50'9 9.3
2014-Jul-25 20:33N 26°05' W 079°60'7 7.2
2014-Jul-25 19:33N 26°04' W 080°08'0 0.1
2014-Jul-25 18:33N 26°04' W 080°08'0 0.0
2014-Jul-25 17:33N 26°04' W 080°08'0 0.0
2014-Jul-25 16:33N 26°04' W 080°08'0 0.0
2014-Jul-25 15:33N 26°04' W 080°08'0 0.0
2014-Jul-25 14:33N 26°04' W 080°08'0 0.0
2014-Jul-25 13:33N 26°04' W 080°08'0 0.0
2014-Jul-25 12:33N 26°04' W 080°08'1 0.9
2014-Jul-25 11:34N 26°04' W 080°07'6 6.5
2014-Jul-25 10:33N 26°03' W 079°60'1110.6
2014-Jul-25 09:33N 25°58' W 079°49'1111.2
2014-Jul-25 08:33N 25°53' W 079°38'8 0.3
2014-Jul-24 06:25N 25°54' W 079°48'6 6.9
2014-Jul-24 05:33N 25°57' W 079°53'7 7.4
2014-Jul-24 04:33N 26°02' W 079°60'7 7.0
2014-Jul-24 03:33N 26°05' W 080°07'1 1.3
2014-Jul-24 02:33N 26°04' W 080°08'0 0.0
2014-Jul-24 01:33N 26°04' W 080°08'0 0.0
2014-Jul-24 00:33N 26°04' W 080°08'0 0.0
2014-Jul-23 23:33N 26°04' W 080°08'0 0.0
2014-Jul-23 22:33N 26°04' W 080°08'0 0.0
2014-Jul-23 21:33N 26°04' W 080°08'0 0.0
2014-Jul-23 20:33N 26°04' W 080°08'0 0.0
2014-Jul-23 19:33N 26°04' W 080°08'0 0.0
2014-Jul-23 18:33N 26°04' W 080°08'0 0.0
2014-Jul-23 17:33N 26°04' W 080°08'0 0.0
2014-Jul-23 16:33N 26°04' W 080°08'0 0.0
2014-Jul-23 15:33N 26°04' W 080°08'2 2.3
2014-Jul-23 14:33N 26°06' W 080°07'1010.4
2014-Jul-23 13:33N 26°03' W 079°55'1110.9
2014-Jul-23 12:33N 25°60' W 079°44'1110.9
2014-Jul-23 11:33N 25°57' W 079°32'  

Dump ship's entire track history